createdAt,value
2023-05-03T00:00:55.856Z,42.26
2023-05-03T00:01:55.903Z,42.24
2023-05-03T00:02:55.864Z,42.26
2023-05-03T00:03:55.859Z,42.28
2023-05-03T00:04:55.861Z,42.25
2023-05-03T00:05:55.852Z,42.25
2023-05-03T00:06:55.841Z,42.23
2023-05-03T00:07:55.846Z,42.24
2023-05-03T00:08:55.847Z,42.23
2023-05-03T00:09:55.844Z,42.21
2023-05-03T00:10:55.834Z,42.23
2023-05-03T00:11:55.828Z,42.20
2023-05-03T00:12:55.846Z,42.20
2023-05-03T00:13:55.829Z,42.18
2023-05-03T00:14:55.834Z,42.22
2023-05-03T00:15:55.833Z,42.21
2023-05-03T00:16:55.880Z,42.21
2023-05-03T00:17:55.940Z,42.17
2023-05-03T00:18:55.844Z,42.20
2023-05-03T00:19:55.833Z,42.24
2023-05-03T00:20:55.836Z,42.18
2023-05-03T00:21:55.837Z,42.17
2023-05-03T00:22:55.841Z,42.17
2023-05-03T00:23:55.823Z,42.20
2023-05-03T00:24:55.814Z,42.19
2023-05-03T00:25:55.813Z,42.18
2023-05-03T00:26:55.809Z,42.18
2023-05-03T00:27:55.805Z,42.17
2023-05-03T00:28:55.805Z,42.18
2023-05-03T00:29:55.813Z,42.17
2023-05-03T00:30:55.822Z,42.17
2023-05-03T00:31:55.789Z,42.18
2023-05-03T00:32:55.814Z,42.17
2023-05-03T00:33:55.780Z,42.18
2023-05-03T00:34:55.775Z,42.15
2023-05-03T00:35:55.775Z,42.14
2023-05-03T00:36:55.767Z,42.17
2023-05-03T00:37:55.766Z,42.16
2023-05-03T00:38:55.762Z,42.12
2023-05-03T00:39:55.760Z,42.12
2023-05-03T00:40:55.775Z,42.16
2023-05-03T00:41:55.753Z,42.12
2023-05-03T00:42:55.751Z,42.13
2023-05-03T00:43:55.750Z,42.11
2023-05-03T00:44:56.127Z,42.11
2023-05-03T00:46:04.638Z,42.12
2023-05-03T00:46:56.741Z,42.16
2023-05-03T00:47:55.718Z,42.14
2023-05-03T00:48:55.651Z,42.14
2023-05-03T00:49:55.621Z,42.14
2023-05-03T00:50:55.596Z,42.11
2023-05-03T00:51:55.570Z,42.09
2023-05-03T00:52:55.527Z,42.12
2023-05-03T00:53:55.518Z,42.13
2023-05-03T00:54:55.486Z,42.11
2023-05-03T00:55:55.454Z,42.09
2023-05-03T00:56:55.434Z,42.13
2023-05-03T00:57:55.402Z,42.12
2023-05-03T00:58:55.383Z,42.08
2023-05-03T00:59:55.345Z,42.10
2023-05-03T01:00:55.326Z,42.11
2023-05-03T01:01:55.336Z,42.08
2023-05-03T01:02:55.333Z,42.09
2023-05-03T01:03:55.405Z,42.07
2023-05-03T01:04:55.210Z,42.09
2023-05-03T01:05:55.191Z,42.04
2023-05-03T01:06:55.170Z,42.07
2023-05-03T01:07:55.129Z,42.03
2023-05-03T01:08:55.107Z,42.08
2023-05-03T01:09:55.145Z,42.05
2023-05-03T01:10:55.086Z,42.06
2023-05-03T01:11:55.080Z,42.04
2023-05-03T01:12:55.076Z,42.05
2023-05-03T01:13:55.072Z,42.05
2023-05-03T01:14:55.069Z,42.03
2023-05-03T01:15:55.112Z,42.05
2023-05-03T01:16:55.086Z,42.06
2023-05-03T01:17:55.095Z,42.01
2023-05-03T01:18:55.071Z,42.00
2023-05-03T01:19:55.069Z,42.05
2023-05-03T01:20:55.073Z,42.05
2023-05-03T01:21:55.065Z,42.04
2023-05-03T01:22:55.105Z,42.02
2023-05-03T01:23:55.058Z,41.97
2023-05-03T01:24:55.043Z,41.99
2023-05-03T01:25:55.045Z,41.97
2023-05-03T01:26:55.037Z,41.99
2023-05-03T01:27:55.035Z,42.03
2023-05-03T01:28:55.035Z,42.02
2023-05-03T01:29:55.036Z,42.01
2023-05-03T01:30:55.034Z,42.00
2023-05-03T01:31:55.079Z,42.01
2023-05-03T01:32:55.068Z,42.00
2023-05-03T01:33:55.036Z,42.01
2023-05-03T01:34:55.048Z,41.98
2023-05-03T01:35:55.035Z,42.02
2023-05-03T01:36:55.082Z,41.98
2023-05-03T01:37:55.022Z,41.95
2023-05-03T01:38:55.024Z,41.95
2023-05-03T01:39:55.799Z,42.01
2023-05-03T01:40:55.005Z,41.97
2023-05-03T01:41:54.995Z,41.97
2023-05-03T01:42:54.997Z,41.94
2023-05-03T01:43:54.990Z,41.94
2023-05-03T01:44:54.993Z,41.96
2023-05-03T01:45:55.049Z,41.98
2023-05-03T01:46:54.984Z,41.97
2023-05-03T01:47:55.121Z,41.97
2023-05-03T01:48:54.999Z,41.95
2023-05-03T01:49:54.979Z,41.94
2023-05-03T01:50:55.005Z,41.93
2023-05-03T01:51:54.981Z,41.95
2023-05-03T01:52:54.985Z,41.94
2023-05-03T01:53:54.967Z,41.94
2023-05-03T01:54:54.970Z,41.94
2023-05-03T01:55:55.017Z,41.91
2023-05-03T01:56:54.963Z,41.92
2023-05-03T01:57:54.958Z,41.94
2023-05-03T01:58:54.960Z,41.93
2023-05-03T01:59:54.947Z,41.92
2023-05-03T02:00:54.989Z,41.91
2023-05-03T02:01:54.938Z,41.94
2023-05-03T02:02:54.999Z,41.90
2023-05-03T02:03:54.938Z,41.89
2023-05-03T02:04:55.196Z,41.90
2023-05-03T02:05:54.926Z,41.94
2023-05-03T02:06:54.925Z,41.90
2023-05-03T02:07:54.932Z,41.93
2023-05-03T02:08:54.927Z,41.91
2023-05-03T02:09:55.819Z,41.90
2023-05-03T02:10:54.914Z,41.87
2023-05-03T02:11:54.909Z,41.86
2023-05-03T02:12:54.917Z,41.89
2023-05-03T02:13:54.883Z,41.88
2023-05-03T02:14:54.891Z,41.88
2023-05-03T02:15:54.889Z,41.86
2023-05-03T02:16:54.926Z,41.87
2023-05-03T02:17:54.895Z,41.85
2023-05-03T02:18:54.882Z,41.85
2023-05-03T02:19:54.868Z,41.86
2023-05-03T02:20:54.867Z,41.84
2023-05-03T02:21:54.860Z,41.86
2023-05-03T02:22:54.850Z,41.86
2023-05-03T02:23:54.857Z,41.89
2023-05-03T02:24:54.837Z,41.87
2023-05-03T02:25:54.842Z,41.84
2023-05-03T02:26:54.822Z,41.84
2023-05-03T02:27:54.812Z,41.85
2023-05-03T02:28:54.812Z,41.85
2023-05-03T02:29:54.808Z,41.83
2023-05-03T02:30:54.822Z,41.84
2023-05-03T02:31:54.784Z,41.85
2023-05-03T02:32:54.814Z,41.84
2023-05-03T02:33:54.772Z,41.84
2023-05-03T02:34:54.782Z,41.85
2023-05-03T02:35:54.763Z,41.84
2023-05-03T02:36:54.747Z,41.86
2023-05-03T02:37:54.897Z,41.82
2023-05-03T02:38:54.738Z,41.85
2023-05-03T02:39:54.735Z,41.79
2023-05-03T02:40:54.719Z,41.83
2023-05-03T02:41:54.723Z,41.83
2023-05-03T02:42:54.715Z,41.79
2023-05-03T02:43:54.716Z,41.81
2023-05-03T02:44:54.697Z,41.81
2023-05-03T02:45:54.715Z,41.83
2023-05-03T02:46:54.709Z,41.81
2023-05-03T02:47:54.726Z,41.78
2023-05-03T02:48:54.709Z,41.79
2023-05-03T02:49:54.673Z,41.79
2023-05-03T02:50:54.677Z,41.79
2023-05-03T02:51:54.665Z,41.78
2023-05-03T02:52:54.647Z,41.78
2023-05-03T02:53:54.651Z,41.78
2023-05-03T02:54:54.659Z,41.79
2023-05-03T02:55:54.655Z,41.79
2023-05-03T02:56:54.640Z,41.74
2023-05-03T02:57:54.625Z,41.76
2023-05-03T02:58:54.623Z,41.75
2023-05-03T02:59:54.629Z,41.76
2023-05-03T03:00:54.631Z,41.78
2023-05-03T03:01:54.604Z,41.73
2023-05-03T03:02:54.630Z,41.76
2023-05-03T03:03:54.710Z,41.77
2023-05-03T03:04:54.589Z,41.78
2023-05-03T03:05:54.572Z,41.77
2023-05-03T03:06:54.625Z,41.79
2023-05-03T03:07:54.598Z,41.75
2023-05-03T03:08:54.564Z,41.74
2023-05-03T03:09:54.551Z,41.77
2023-05-03T03:10:54.547Z,41.74
2023-05-03T03:11:54.543Z,41.78
2023-05-03T03:12:54.555Z,41.73
2023-05-03T03:13:54.547Z,41.73
2023-05-03T03:14:54.524Z,41.77
2023-05-03T03:15:54.552Z,41.73
2023-05-03T03:16:54.510Z,41.71
2023-05-03T03:17:54.578Z,41.73
2023-05-03T03:18:54.502Z,41.73
2023-05-03T03:19:54.496Z,41.74
2023-05-03T03:20:54.497Z,41.73
2023-05-03T03:21:54.476Z,41.72
2023-05-03T03:22:54.465Z,41.71
2023-05-03T03:23:54.456Z,41.73
2023-05-03T03:24:54.441Z,41.73
2023-05-03T03:25:54.449Z,41.74
2023-05-03T03:26:54.440Z,41.74
2023-05-03T03:27:54.435Z,41.72
2023-05-03T03:28:54.434Z,41.73
2023-05-03T03:29:54.430Z,41.70
2023-05-03T03:30:54.426Z,41.71
2023-05-03T03:31:54.438Z,41.69
2023-05-03T03:32:54.446Z,41.70
2023-05-03T03:33:54.396Z,41.70
2023-05-03T03:34:54.390Z,41.71
2023-05-03T03:35:54.384Z,41.68
2023-05-03T03:36:54.378Z,41.72
2023-05-03T03:37:54.374Z,41.72
2023-05-03T03:38:54.372Z,41.70
2023-05-03T03:39:54.355Z,41.72
2023-05-03T03:40:54.356Z,41.70
2023-05-03T03:41:54.352Z,41.68
2023-05-03T03:42:54.349Z,41.71
2023-05-03T03:43:54.342Z,41.69
2023-05-03T03:44:54.335Z,41.69
2023-05-03T03:45:54.329Z,41.68
2023-05-03T03:46:54.371Z,41.69
2023-05-03T03:47:54.333Z,41.67
2023-05-03T03:48:54.303Z,41.66
2023-05-03T03:49:54.298Z,41.70
2023-05-03T03:50:54.294Z,41.68
2023-05-03T03:51:54.289Z,41.65
2023-05-03T03:52:54.287Z,41.67
2023-05-03T03:53:54.277Z,41.67
2023-05-03T03:54:54.280Z,41.67
2023-05-03T03:55:54.293Z,41.69
2023-05-03T03:56:54.279Z,41.67
2023-05-03T03:57:54.275Z,41.69
2023-05-03T03:58:54.281Z,41.65
2023-05-03T03:59:54.257Z,41.63
2023-05-03T04:00:54.276Z,41.67
2023-05-03T04:01:54.288Z,41.66
2023-05-03T04:02:54.297Z,41.63
2023-05-03T04:03:54.326Z,41.65
2023-05-03T04:04:54.247Z,41.64
2023-05-03T04:05:54.246Z,41.63
2023-05-03T04:06:54.301Z,41.62
2023-05-03T04:07:54.247Z,41.65
2023-05-03T04:08:54.241Z,41.64
2023-05-03T04:09:54.243Z,41.60
2023-05-03T04:10:54.277Z,41.58
2023-05-03T04:11:54.242Z,41.65
2023-05-03T04:12:54.236Z,41.66
2023-05-03T04:13:54.239Z,41.64
2023-05-03T04:14:54.230Z,41.63
2023-05-03T04:15:54.229Z,41.63
2023-05-03T04:16:54.231Z,41.61
2023-05-03T04:17:54.346Z,41.61
2023-05-03T04:18:54.188Z,41.64
2023-05-03T04:19:54.190Z,41.60
2023-05-03T04:20:54.194Z,41.58
2023-05-03T04:21:54.190Z,41.60
2023-05-03T04:22:54.177Z,41.61
2023-05-03T04:23:54.180Z,41.62
2023-05-03T04:24:54.173Z,41.60
2023-05-03T04:25:54.169Z,41.61
2023-05-03T04:26:54.175Z,41.65
2023-05-03T04:27:54.159Z,41.61
2023-05-03T04:28:54.167Z,41.61
2023-05-03T04:29:54.162Z,41.61
2023-05-03T04:30:54.202Z,41.59
2023-05-03T04:31:54.187Z,41.60
2023-05-03T04:32:54.355Z,41.60
2023-05-03T04:33:54.195Z,41.62
2023-05-03T04:34:54.178Z,41.60
2023-05-03T04:35:54.185Z,41.60
2023-05-03T04:36:54.181Z,41.58
2023-05-03T04:37:54.175Z,41.61
2023-05-03T04:38:54.174Z,41.61
2023-05-03T04:39:54.172Z,41.60
2023-05-03T04:40:54.177Z,41.60
2023-05-03T04:41:54.175Z,41.57
2023-05-03T04:42:54.165Z,41.59
2023-05-03T04:43:54.166Z,41.59
2023-05-03T04:44:54.180Z,41.58
2023-05-03T04:45:54.229Z,41.59
2023-05-03T04:46:54.356Z,41.57
2023-05-03T04:47:54.213Z,41.59
2023-05-03T04:48:54.168Z,41.58
2023-05-03T04:49:54.173Z,41.58
2023-05-03T04:50:54.167Z,41.56
2023-05-03T04:51:55.770Z,41.55
2023-05-03T04:52:54.145Z,41.56
2023-05-03T04:53:54.162Z,41.58
2023-05-03T04:54:54.156Z,41.58
2023-05-03T04:55:54.159Z,41.64
2023-05-03T04:56:54.159Z,41.59
2023-05-03T04:57:54.161Z,41.61
2023-05-03T04:58:54.180Z,41.62
2023-05-03T04:59:54.239Z,41.64
2023-05-03T05:00:54.212Z,41.64
2023-05-03T05:01:54.263Z,41.63
2023-05-03T05:02:54.406Z,41.67
2023-05-03T05:03:54.365Z,41.67
2023-05-03T05:04:54.339Z,41.77
2023-05-03T05:05:54.293Z,41.75
2023-05-03T05:06:54.390Z,41.91
2023-05-03T05:07:54.293Z,41.95
2023-05-03T05:08:54.303Z,41.90
2023-05-03T05:09:54.321Z,42.19
2023-05-03T05:10:54.344Z,42.14
2023-05-03T05:11:56.639Z,42.43
2023-05-03T05:12:54.336Z,42.86
2023-05-03T05:13:54.315Z,42.89
2023-05-03T05:14:54.302Z,43.25
2023-05-03T05:15:54.292Z,43.07
2023-05-03T05:16:54.307Z,42.77
2023-05-03T05:17:54.347Z,42.99
2023-05-03T05:18:54.238Z,43.24
2023-05-03T05:19:54.236Z,43.38
2023-05-03T05:20:54.209Z,43.35
2023-05-03T05:21:54.189Z,43.79
2023-05-03T05:22:56.447Z,43.89
2023-05-03T05:23:54.164Z,44.11
2023-05-03T05:24:54.158Z,44.29
2023-05-03T05:25:54.183Z,44.12
2023-05-03T05:26:54.241Z,44.04
2023-05-03T05:27:54.292Z,44.12
2023-05-03T05:28:55.412Z,44.12
2023-05-03T05:29:54.241Z,44.24
2023-05-03T05:30:54.234Z,44.36
2023-05-03T05:31:54.252Z,43.87
2023-05-03T05:32:54.988Z,43.79
2023-05-03T05:33:54.401Z,43.47
2023-05-03T05:34:54.397Z,43.52
2023-05-03T05:35:54.393Z,43.27
2023-05-03T05:36:54.374Z,43.04
2023-05-03T05:37:54.348Z,42.94
2023-05-03T05:38:55.939Z,43.15
2023-05-03T05:39:54.341Z,42.98
2023-05-03T05:40:54.347Z,43.08
2023-05-03T05:41:55.321Z,43.11
2023-05-03T05:42:54.293Z,43.09
2023-05-03T05:43:54.245Z,43.02
2023-05-03T05:44:54.215Z,43.05
2023-05-03T05:45:54.210Z,42.88
2023-05-03T05:46:54.181Z,42.78
2023-05-03T05:47:54.215Z,42.99
2023-05-03T05:48:54.089Z,42.88
2023-05-03T05:49:54.068Z,42.94
2023-05-03T05:50:54.108Z,42.82
2023-05-03T05:51:54.004Z,42.76
2023-05-03T05:52:53.972Z,42.89
2023-05-03T05:53:53.939Z,42.79
2023-05-03T05:54:53.933Z,42.76
2023-05-03T05:55:53.899Z,42.75
2023-05-03T05:56:54.014Z,42.72
2023-05-03T05:57:53.851Z,42.74
2023-05-03T05:58:53.815Z,42.66
2023-05-03T05:59:54.278Z,42.69
2023-05-03T06:00:53.747Z,42.70
2023-05-03T06:01:53.841Z,42.77
2023-05-03T06:02:54.709Z,42.75
2023-05-03T06:03:53.664Z,42.77
2023-05-03T06:04:53.651Z,42.77
2023-05-03T06:05:53.614Z,42.72
2023-05-03T06:06:53.808Z,42.67
2023-05-03T06:07:53.571Z,42.64
2023-05-03T06:08:53.576Z,42.62
2023-05-03T06:09:53.516Z,42.67
2023-05-03T06:10:53.486Z,42.63
2023-05-03T06:11:53.462Z,42.63
2023-05-03T06:12:53.432Z,42.64
2023-05-03T06:13:53.413Z,42.87
2023-05-03T06:15:02.313Z,43.01
2023-05-03T06:15:55.010Z,43.32
2023-05-03T06:16:53.418Z,43.55
2023-05-03T06:17:53.375Z,43.47
2023-05-03T06:18:53.932Z,42.76
2023-05-03T06:19:53.301Z,42.90
2023-05-03T06:20:53.928Z,43.43
2023-05-03T06:21:54.406Z,43.51
2023-05-03T06:22:53.429Z,43.37
2023-05-03T06:23:53.430Z,43.22
2023-05-03T06:24:54.432Z,43.09
2023-05-03T06:25:53.446Z,43.37
2023-05-03T06:26:54.357Z,43.28
2023-05-03T06:27:53.483Z,43.43
2023-05-03T06:28:53.501Z,43.48
2023-05-03T06:29:53.503Z,43.20
2023-05-03T06:30:53.561Z,43.15
2023-05-03T06:31:53.536Z,42.92
2023-05-03T06:32:53.625Z,42.89
2023-05-03T06:33:58.475Z,42.77
2023-05-03T06:34:53.539Z,42.70
2023-05-03T06:35:53.512Z,42.71
2023-05-03T06:36:53.547Z,42.60
2023-05-03T06:37:54.858Z,42.53
2023-05-03T06:38:53.494Z,42.62
2023-05-03T06:39:53.439Z,42.58
2023-05-03T06:40:54.409Z,42.60
2023-05-03T06:41:53.861Z,42.58
2023-05-03T06:42:53.354Z,42.46
2023-05-03T06:43:53.333Z,42.53
2023-05-03T06:44:53.310Z,42.55
2023-05-03T06:45:53.273Z,42.61
2023-05-03T06:46:53.284Z,42.53
2023-05-03T06:47:53.248Z,42.54
2023-05-03T06:48:56.006Z,42.55
2023-05-03T06:49:53.234Z,42.54
2023-05-03T06:50:53.157Z,42.49
2023-05-03T06:51:53.128Z,42.57
2023-05-03T06:52:53.101Z,42.60
2023-05-03T06:53:53.070Z,42.51
2023-05-03T06:54:53.064Z,42.55
2023-05-03T06:55:53.022Z,42.50
2023-05-03T06:56:53.014Z,42.51
2023-05-03T06:57:52.971Z,42.56
2023-05-03T06:58:55.475Z,42.55
2023-05-03T06:59:53.048Z,42.57
2023-05-03T07:00:53.084Z,42.61
2023-05-03T07:01:53.077Z,42.60
2023-05-03T07:02:53.097Z,42.55
2023-05-03T07:03:53.220Z,42.56
2023-05-03T07:04:53.023Z,42.72
2023-05-03T07:05:53.976Z,42.56
2023-05-03T07:06:56.813Z,42.52
2023-05-03T07:07:53.004Z,42.55
2023-05-03T07:08:52.990Z,42.67
2023-05-03T07:09:52.961Z,42.71
2023-05-03T07:10:52.939Z,42.80
2023-05-03T07:11:52.932Z,42.99
2023-05-03T07:12:52.900Z,42.62
2023-05-03T07:13:52.875Z,42.53
2023-05-03T07:14:52.850Z,42.80
2023-05-03T07:15:52.859Z,43.12
2023-05-03T07:16:54.467Z,43.30
2023-05-03T07:17:52.845Z,43.43
2023-05-03T07:18:52.782Z,43.49
2023-05-03T07:19:52.748Z,43.94
2023-05-03T07:20:53.456Z,43.91
2023-05-03T07:21:52.710Z,43.58
2023-05-03T07:22:52.716Z,44.23
2023-05-03T07:23:52.694Z,44.06
2023-05-03T07:24:52.730Z,43.79
2023-05-03T07:25:54.465Z,43.97
2023-05-03T07:26:52.643Z,43.76
2023-05-03T07:27:52.962Z,44.09
2023-05-03T07:28:52.650Z,43.80
2023-05-03T07:29:52.645Z,43.76
2023-05-03T07:30:52.653Z,43.55
2023-05-03T07:31:53.583Z,43.58
2023-05-03T07:32:52.810Z,43.75
2023-05-03T07:33:52.749Z,43.76
2023-05-03T07:34:52.679Z,43.93
2023-05-03T07:35:52.673Z,43.94
2023-05-03T07:36:52.673Z,43.97
2023-05-03T07:37:52.668Z,43.94
2023-05-03T07:38:52.672Z,43.97
2023-05-03T07:39:52.659Z,43.95
2023-05-03T07:40:52.734Z,43.90
2023-05-03T07:41:52.634Z,43.89
2023-05-03T07:42:52.631Z,43.89
2023-05-03T07:43:52.622Z,43.88
2023-05-03T07:44:52.614Z,43.89
2023-05-03T07:45:52.678Z,43.90
2023-05-03T07:46:52.590Z,43.88
2023-05-03T07:47:52.601Z,43.89
2023-05-03T07:48:52.546Z,43.91
2023-05-03T07:49:52.541Z,43.91
2023-05-03T07:50:52.528Z,43.94
2023-05-03T07:51:52.495Z,43.91
2023-05-03T07:52:52.494Z,43.92
2023-05-03T07:53:52.476Z,43.91
2023-05-03T07:54:52.461Z,43.90
2023-05-03T07:55:52.449Z,43.86
2023-05-03T07:56:53.326Z,43.89
2023-05-03T07:57:52.589Z,43.89
2023-05-03T07:59:04.648Z,43.88
2023-05-03T07:59:53.539Z,43.91
2023-05-03T08:00:52.508Z,43.93
2023-05-03T08:01:52.465Z,43.91
2023-05-03T08:02:52.583Z,43.90
2023-05-03T08:03:52.585Z,43.89
2023-05-03T08:04:52.592Z,43.88
2023-05-03T08:05:52.397Z,43.89
2023-05-03T08:06:52.384Z,43.90
2023-05-03T08:07:52.298Z,43.90
2023-05-03T08:08:52.268Z,43.88
2023-05-03T08:09:52.242Z,43.91
2023-05-03T08:10:52.364Z,43.81
2023-05-03T08:11:52.213Z,44.23
2023-05-03T08:12:52.193Z,44.08
2023-05-03T08:13:55.015Z,44.06
2023-05-03T08:14:52.170Z,43.74
2023-05-03T08:15:52.208Z,43.86
2023-05-03T08:16:52.110Z,44.57
2023-05-03T08:17:52.133Z,45.34
2023-05-03T08:18:52.087Z,45.35
2023-05-03T08:19:52.079Z,44.17
2023-05-03T08:20:52.048Z,44.59
2023-05-03T08:21:52.025Z,43.44
2023-05-03T08:22:52.049Z,43.49
2023-05-03T08:23:51.997Z,42.35
2023-05-03T08:24:51.941Z,43.27
2023-05-03T08:25:51.946Z,43.09
2023-05-03T08:26:51.901Z,41.37
2023-05-03T08:27:51.882Z,40.07
2023-05-03T08:28:51.887Z,40.41
2023-05-03T08:29:51.847Z,39.20
2023-05-03T08:30:51.782Z,39.15
2023-05-03T08:31:51.850Z,39.40
2023-05-03T08:32:51.850Z,39.87
2023-05-03T08:33:51.725Z,42.11
2023-05-03T08:34:51.689Z,41.75
2023-05-03T08:35:51.654Z,41.53
2023-05-03T08:36:51.630Z,41.24
2023-05-03T08:37:51.623Z,41.53
2023-05-03T08:38:51.565Z,41.43
2023-05-03T08:39:51.596Z,41.68
2023-05-03T08:40:51.552Z,41.87
2023-05-03T08:41:51.539Z,41.85
2023-05-03T08:42:51.528Z,41.74
2023-05-03T08:43:51.535Z,41.68
2023-05-03T08:44:51.464Z,42.23
2023-05-03T08:45:51.543Z,42.40
2023-05-03T08:46:53.051Z,42.59
2023-05-03T08:47:51.441Z,42.80
2023-05-03T08:48:51.373Z,43.02
2023-05-03T08:49:51.346Z,42.86
2023-05-03T08:50:51.324Z,42.66
2023-05-03T08:51:51.301Z,42.51
2023-05-03T08:52:51.297Z,42.46
2023-05-03T08:53:51.243Z,42.40
2023-05-03T08:54:51.223Z,42.30
2023-05-03T08:55:51.995Z,42.28
2023-05-03T08:56:51.153Z,42.31
2023-05-03T08:57:51.133Z,42.35
2023-05-03T08:58:51.114Z,42.42
2023-05-03T08:59:51.089Z,42.34
2023-05-03T09:00:51.073Z,42.31
2023-05-03T09:01:54.369Z,42.28
2023-05-03T09:02:51.097Z,42.31
2023-05-03T09:03:51.117Z,42.25
2023-05-03T09:04:50.973Z,42.23
2023-05-03T09:05:50.945Z,42.22
2023-05-03T09:06:50.938Z,42.17
2023-05-03T09:07:50.886Z,42.21
2023-05-03T09:08:51.517Z,42.15
2023-05-03T09:09:50.839Z,42.05
2023-05-03T09:10:50.809Z,42.10
2023-05-03T09:11:50.774Z,42.13
2023-05-03T09:12:50.755Z,42.32
2023-05-03T09:13:51.526Z,42.36
2023-05-03T09:14:50.694Z,42.54
2023-05-03T09:15:53.140Z,43.06
2023-05-03T09:16:50.676Z,43.16
2023-05-03T09:17:54.453Z,43.67
2023-05-03T09:18:50.620Z,44.28
2023-05-03T09:19:50.640Z,44.62
2023-05-03T09:20:50.584Z,44.49
2023-05-03T09:21:50.573Z,44.44
2023-05-03T09:22:51.534Z,44.33
2023-05-03T09:23:50.547Z,43.59
2023-05-03T09:24:50.480Z,42.86
2023-05-03T09:25:50.454Z,41.67
2023-05-03T09:26:50.425Z,40.54
2023-05-03T09:27:50.485Z,39.62
2023-05-03T09:28:50.374Z,39.73
2023-05-03T09:29:50.351Z,38.79
2023-05-03T09:30:52.025Z,38.85
2023-05-03T09:31:50.336Z,39.94
2023-05-03T09:32:50.317Z,41.97
2023-05-03T09:33:50.293Z,42.22
2023-05-03T09:34:51.269Z,42.53
2023-05-03T09:35:51.270Z,42.86
2023-05-03T09:36:50.328Z,42.77
2023-05-03T09:37:51.014Z,42.79
2023-05-03T09:38:50.138Z,42.84
2023-05-03T09:39:51.151Z,42.93
2023-05-03T09:40:50.033Z,43.02
2023-05-03T09:41:49.997Z,43.01
2023-05-03T09:42:49.969Z,43.07
2023-05-03T09:43:49.935Z,43.06
2023-05-03T09:44:49.902Z,43.08
2023-05-03T09:45:49.934Z,43.00
2023-05-03T09:46:49.844Z,43.02
2023-05-03T09:47:49.907Z,43.03
2023-05-03T09:48:49.796Z,42.94
2023-05-03T09:49:49.743Z,42.90
2023-05-03T09:50:49.705Z,42.96
2023-05-03T09:51:49.688Z,42.90
2023-05-03T09:52:49.642Z,42.94
2023-05-03T09:53:49.618Z,42.90
2023-05-03T09:54:49.591Z,43.15
2023-05-03T09:55:49.552Z,43.03
2023-05-03T09:56:49.536Z,43.03
2023-05-03T09:57:49.578Z,42.98
2023-05-03T09:58:49.457Z,42.99
2023-05-03T09:59:49.520Z,43.01
2023-05-03T10:00:52.038Z,42.81
2023-05-03T10:01:49.462Z,42.81
2023-05-03T10:02:49.399Z,42.85
2023-05-03T10:03:50.146Z,42.85
2023-05-03T10:04:49.278Z,42.82
2023-05-03T10:05:50.119Z,42.60
2023-05-03T10:06:49.262Z,42.56
2023-05-03T10:07:50.531Z,42.33
2023-05-03T10:08:49.200Z,42.06
2023-05-03T10:09:49.182Z,42.11
2023-05-03T10:10:49.162Z,41.85
2023-05-03T10:11:49.134Z,41.78
2023-05-03T10:12:49.110Z,41.70
2023-05-03T10:13:49.082Z,41.61
2023-05-03T10:14:49.538Z,41.74
2023-05-03T10:15:49.053Z,41.80
2023-05-03T10:16:49.011Z,42.17
2023-05-03T10:17:49.996Z,42.17
2023-05-03T10:18:48.942Z,42.20
2023-05-03T10:19:48.898Z,42.04
2023-05-03T10:20:48.908Z,41.97
2023-05-03T10:21:48.867Z,42.00
2023-05-03T10:22:48.807Z,42.49
2023-05-03T10:23:48.768Z,42.88
2023-05-03T10:24:48.731Z,43.00
2023-05-03T10:25:49.463Z,43.05
2023-05-03T10:26:48.677Z,43.05
2023-05-03T10:27:48.664Z,43.03
2023-05-03T10:28:48.639Z,43.06
2023-05-03T10:29:48.575Z,42.98
2023-05-03T10:30:48.605Z,43.08
2023-05-03T10:31:48.672Z,42.94
2023-05-03T10:32:48.637Z,42.89
2023-05-03T10:33:48.428Z,42.81
2023-05-03T10:34:48.973Z,42.71
2023-05-03T10:35:48.383Z,42.84
2023-05-03T10:36:49.737Z,42.87
2023-05-03T10:37:48.309Z,42.95
2023-05-03T10:38:48.327Z,43.00
2023-05-03T10:39:48.225Z,42.99
2023-05-03T10:40:48.206Z,42.71
2023-05-03T10:41:48.970Z,42.85
2023-05-03T10:42:48.136Z,42.71
2023-05-03T10:43:48.098Z,42.78
2023-05-03T10:44:48.083Z,42.76
2023-05-03T10:45:48.954Z,42.86
2023-05-03T10:46:48.147Z,42.77
2023-05-03T10:47:48.080Z,42.81
2023-05-03T10:48:48.048Z,42.81
2023-05-03T10:49:49.011Z,42.69
2023-05-03T10:50:47.970Z,42.56
2023-05-03T10:51:47.947Z,42.55
2023-05-03T10:52:47.910Z,42.53
2023-05-03T10:53:47.892Z,42.58
2023-05-03T10:54:47.852Z,42.66
2023-05-03T10:55:47.813Z,42.82
2023-05-03T10:56:47.792Z,42.84
2023-05-03T10:57:47.762Z,42.73
2023-05-03T10:58:47.756Z,42.65
2023-05-03T10:59:47.686Z,42.69
2023-05-03T11:00:47.661Z,42.57
2023-05-03T11:01:47.709Z,42.58
2023-05-03T11:02:47.732Z,42.52
2023-05-03T11:03:47.574Z,42.63
2023-05-03T11:04:47.569Z,42.75
2023-05-03T11:05:57.653Z,42.83
2023-05-03T11:06:57.681Z,42.79
2023-05-03T11:07:57.629Z,42.60
2023-05-03T11:08:57.612Z,42.52
2023-05-03T11:09:57.607Z,42.41
2023-05-03T11:10:57.629Z,42.33
2023-05-03T11:11:57.657Z,42.28
2023-05-03T11:12:57.710Z,42.30
2023-05-03T11:13:57.909Z,42.43
2023-05-03T11:14:57.793Z,42.83
2023-05-03T11:15:57.882Z,42.95
2023-05-03T11:16:57.882Z,43.06
2023-05-03T11:17:57.977Z,43.07
2023-05-03T11:18:57.955Z,43.05
2023-05-03T11:19:57.989Z,43.11
2023-05-03T11:20:58.045Z,43.03
2023-05-03T11:21:58.091Z,43.10
2023-05-03T11:22:58.122Z,43.06
2023-05-03T11:23:58.146Z,43.05
2023-05-03T11:24:58.229Z,43.06
2023-05-03T11:25:58.325Z,43.03
2023-05-03T11:26:58.296Z,43.05
2023-05-03T11:27:58.311Z,42.98
2023-05-03T11:28:58.427Z,43.00
2023-05-03T11:29:58.371Z,42.96
2023-05-03T11:30:58.407Z,42.68
2023-05-03T11:31:58.497Z,42.69
2023-05-03T11:32:58.527Z,42.71
2023-05-03T11:33:58.503Z,42.55
2023-05-03T11:34:58.536Z,42.43
2023-05-03T11:35:58.575Z,42.52
2023-05-03T11:36:58.617Z,42.62
2023-05-03T11:37:58.673Z,42.46
2023-05-03T11:38:58.726Z,42.53
2023-05-03T11:39:58.744Z,42.56
2023-05-03T11:40:58.832Z,42.12
2023-05-03T11:41:58.818Z,42.64
2023-05-03T11:42:58.943Z,42.69
2023-05-03T11:44:12.152Z,42.68
2023-05-03T11:44:59.956Z,42.75
2023-05-03T11:45:58.939Z,42.62
2023-05-03T11:46:58.905Z,42.70
2023-05-03T11:47:58.847Z,42.74
2023-05-03T11:48:58.818Z,42.45
2023-05-03T11:49:58.790Z,42.32
2023-05-03T11:50:58.735Z,42.25
2023-05-03T11:51:58.733Z,42.13
2023-05-03T11:52:58.706Z,42.05
2023-05-03T11:54:00.050Z,41.90
2023-05-03T11:54:58.853Z,41.92
2023-05-03T11:55:58.889Z,41.92
2023-05-03T11:56:59.443Z,41.95
2023-05-03T11:57:58.965Z,41.98
2023-05-03T11:58:59.000Z,42.00
2023-05-03T11:59:59.038Z,42.00
2023-05-03T12:00:59.102Z,41.93
2023-05-03T12:01:59.113Z,41.98
2023-05-03T12:02:59.325Z,42.09
2023-05-03T12:03:59.524Z,42.00
2023-05-03T12:04:59.400Z,42.15
2023-05-03T12:05:59.738Z,42.27
2023-05-03T12:07:00.616Z,42.21
2023-05-03T12:08:00.999Z,42.45
2023-05-03T12:08:59.721Z,42.35
2023-05-03T12:11:01.904Z,42.38
2023-05-03T12:12:01.650Z,42.32
2023-05-03T12:13:00.542Z,42.32
2023-05-03T12:13:59.455Z,42.11
2023-05-03T12:14:59.641Z,42.09
2023-05-03T12:16:10.936Z,42.10
2023-05-03T12:17:00.681Z,41.93
2023-05-03T12:18:00.187Z,41.89
2023-05-03T12:19:01.945Z,41.89
2023-05-03T12:20:33.156Z,42.13
2023-05-03T12:22:59.810Z,41.99
2023-05-03T12:24:01.327Z,41.87
2023-05-03T12:24:59.360Z,41.88
2023-05-03T12:26:01.040Z,41.94
2023-05-03T12:27:02.083Z,42.02
2023-05-03T12:28:17.881Z,42.14
2023-05-03T12:29:01.970Z,42.16
2023-05-03T12:30:01.372Z,42.06
2023-05-03T12:30:59.571Z,42.09
2023-05-03T12:31:59.490Z,42.11
2023-05-03T12:32:59.564Z,42.11
2023-05-03T12:34:29.101Z,42.11
2023-05-03T12:35:02.532Z,42.13
2023-05-03T12:35:59.603Z,42.11
2023-05-03T12:36:59.558Z,42.10
2023-05-03T12:38:02.420Z,42.10
2023-05-03T12:39:01.625Z,42.01
2023-05-03T12:40:21.664Z,41.95
2023-05-03T12:41:00.425Z,41.93
2023-05-03T12:42:59.317Z,41.85
2023-05-03T12:44:00.452Z,41.80
2023-05-03T12:44:59.300Z,41.79
2023-05-03T12:46:25.103Z,41.81
2023-05-03T12:47:01.081Z,41.86
2023-05-03T12:47:59.231Z,41.85
2023-05-03T12:49:00.711Z,41.81
2023-05-03T12:50:00.005Z,41.67
2023-05-03T12:51:17.742Z,41.79
2023-05-03T12:52:23.230Z,41.76
2023-05-03T12:53:02.741Z,41.81
2023-05-03T12:54:01.752Z,41.82
2023-05-03T12:55:03.154Z,41.76
2023-05-03T12:56:00.027Z,41.78
2023-05-03T12:57:01.444Z,41.74